x

Dunkirk, Ny (dbln6) Weather Station

11:00am - Sun 19th Nov 2017 All times are CST. -6 hours from GMT.

  • Wind
    31mph, 36mph gusts
  • Air Temp 38°f
  • Sea Pressure 1004.6mb
  • Dunkirk, Ny
  • Dunkirk, Ny

More Historic Weather Station data

Upgrade to MSW Pro to gain access to the past 30 days of data for over 8000 Wavebouys and Weather Stations around the globe.

Join

Comparision Forecast

View Surf forecast
   
Sun 11/19 11:00am 31 36 mph 1004.6mb 38f
10:00am 34 40 mph 1003.7mb 40f
9:00am 31 39 mph 1003.8mb 41f
8:00am 23 33 mph 1003.8mb 41f
7:00am 30 33 mph 1002.2mb 40f
5:00am 37 45 mph 998.1mb 41f
4:00am 36 44 mph 996.7mb 41f
3:00am 38 46 mph 994.1mb 40f
1:00am 31 37 mph 989.6mb 42f
12:00am 43 52 mph 985.1mb 44f
Sat 11/18 11:00pm 8 10 mph 984.5mb 51f
10:00pm 7 9 mph 984.5mb 52f
9:00pm 11 14 mph 985mb 54f
8:00pm 14 21 mph 985.6mb 56f
7:00pm 7 10 mph 987.4mb 55f
6:00pm 3 5 mph 988.9mb 52f
5:00pm 3 7 mph 990.2mb 49f
4:00pm  -  3 mph 992.2mb 48f
3:00pm 9 14 mph 992.6mb 48f
2:00pm 8 13 mph 994.2mb 48f
1:00pm 8 11 mph 995.5mb 48f
12:00pm 10 21 mph 997.5mb 49f
11:00am 7 14 mph 999.1mb 48f
10:00am 8 13 mph 1000mb 48f
9:00am 10 21 mph 1001.1mb 48f
8:00am 9 21 mph 1001.7mb 47f
7:00am 8 15 mph 1002.2mb 46f
6:00am 11 20 mph 1002.8mb 44f
5:00am 5 9 mph 1003.7mb 43f
4:00am 10 17 mph 1005.7mb 46f
3:00am 5 9 mph 1006.2mb 47f
2:00am 18 26 mph 1006.1mb 45f
1:00am 3 6 mph 1008.4mb 45f
12:00am 6 7 mph 1009.7mb 43f
Fri 11/17 11:00pm 6 8 mph 1011.6mb 42f
10:00pm 9 14 mph 1013mb 39f
9:00pm 7 10 mph 1014.5mb 39f
8:00pm 3 6 mph 1015.5mb 39f
7:00pm 3 7 mph 1016.7mb 39f
6:00pm 5 6 mph 1018.1mb 37f
5:00pm 5 7 mph 1018.6mb 38f
4:00pm 5 7 mph 1019.6mb 38f
3:00pm 5 7 mph 1020.3mb 38f
2:00pm 5 7 mph 1021.7mb 38f
1:00pm 7 9 mph 1022.7mb 38f
12:00pm 6 8 mph 1023.8mb 37f
11:00am 7 8 mph 1024.6mb 36f
10:00am 3 5 mph 1025.7mb 35f
9:00am 5 5 mph 1026.1mb 35f
8:00am 2 5 mph 1026.3mb 35f
7:00am 3 5 mph 1025.9mb 34f
6:00am 6 8 mph 1025.3mb 34f
5:00am 10 13 mph 1024.5mb 33f
4:00am 13 16 mph 1024.2mb 34f
3:00am 10 13 mph 1024mb 35f
2:00am 15 18 mph 1023.8mb 35f
1:00am 17 22 mph 1022.9mb 37f
12:00am 18 21 mph 1022.2mb 37f
Thu 11/16 11:00pm 22 28 mph 1021.5mb 36f
10:00pm 24 29 mph 1020.6mb 38f
9:00pm 21 29 mph 1020.6mb 39f
8:00pm 25 32 mph 1019.2mb 39f
7:00pm 29 33 mph 1018.2mb 40f
6:00pm 32 38 mph 1016.9mb 42f
5:00pm 32 37 mph 1015.8mb 42f
4:00pm 34 44 mph 1013.9mb 43f
3:00pm 33 39 mph 1013.1mb 44f
2:00pm 30 40 mph 1012.2mb 44f
1:00pm 34 40 mph 1010.8mb 44f
12:00pm 41 45 mph 1008.8mb 43f
11:00am 39 45 mph 1008.7mb 43f
10:00am 38 44 mph 1008.6mb 43f
9:00am 34 39 mph 1008.3mb 43f
8:00am 38 44 mph 1006.9mb 43f
7:00am 30 36 mph 1007.3mb 44f
6:00am 29 33 mph 1006.8mb 42f
5:00am 31 37 mph 1006mb 47f
4:00am 37 40 mph 1005.1mb 48f
3:00am 39 47 mph 1004.1mb 49f
2:00am 39 48 mph 1003.9mb 49f
1:00am 18 29 mph 1005.7mb 48f
12:00am 15 25 mph 1006mb 48f
Wed 11/15 11:00pm 13 20 mph 1006.8mb 46f
10:00pm 13 28 mph 1006.9mb 44f
9:00pm 17 25 mph 1007.3mb 45f
8:00pm 17 29 mph 1007.7mb 45f
7:00pm 16 23 mph 1008.8mb 47f